Time;durP1;ratioP1;P1;durP2;ratioP2;P2;SDS_P1;SDS_P2;PMS_P1;PMS_P2;Temp;Humidity;BMP_temperature;BMP_pressure;BME280_temperature;BME280_humidity;BME280_pressure;Samples;Min_cycle;Max_cycle;Signal;HPM_P1;HPM_P2
2021/08/11 00:01:24;;;;;;;17.15;10.07;;;18.30;99.90;;;;;;5123233;28;20167;-68
2021/08/11 00:03:50;;;;;;;32.58;10.60;;;18.40;99.90;;;;;;5125203;28;20621;-68
2021/08/11 00:06:16;;;;;;;24.02;10.75;;;18.40;99.90;;;;;;5126064;28;20289;-68
2021/08/11 00:08:44;;;;;;;13.70;10.40;;;18.50;99.90;;;;;;5126112;28;20270;-68
2021/08/11 00:11:10;;;;;;;25.98;10.90;;;18.50;99.90;;;;;;5123644;28;20167;-68
2021/08/11 00:13:35;;;;;;;29.50;10.88;;;18.40;99.90;;;;;;5126435;28;20180;-68
2021/08/11 00:16:01;;;;;;;22.38;10.88;;;18.40;99.90;;;;;;5126061;28;20166;-68
2021/08/11 00:18:26;;;;;;;19.08;10.93;;;18.30;99.90;;;;;;5124829;28;20166;-68
2021/08/11 00:20:52;;;;;;;17.95;9.55;;;18.30;99.90;;;;;;5123522;28;20183;-68
2021/08/11 00:23:18;;;;;;;20.45;9.95;;;18.30;99.90;;;;;;5126211;28;20169;-68
2021/08/11 00:25:44;;;;;;;18.00;8.98;;;18.20;99.90;;;;;;5124806;28;20234;-68
2021/08/11 00:28:09;;;;;;;18.48;9.27;;;18.10;99.90;;;;;;5126021;28;20205;-69
2021/08/11 00:30:35;;;;;;;15.48;8.85;;;18.10;99.90;;;;;;5122910;28;20201;-68
2021/08/11 00:33:00;;;;;;;10.88;8.98;;;18.00;99.90;;;;;;5125372;28;20182;-68
2021/08/11 00:35:26;;;;;;;10.75;8.65;;;18.00;99.90;;;;;;5125876;28;20179;-69
2021/08/11 00:37:52;;;;;;;9.82;8.75;;;18.00;99.90;;;;;;5126000;28;20694;-68
2021/08/11 00:40:19;;;;;;;10.00;9.10;;;18.00;99.90;;;;;;5125870;28;20167;-68
2021/08/11 00:42:46;;;;;;;11.07;8.90;;;17.90;99.90;;;;;;5123234;28;20185;-69
2021/08/11 00:45:14;;;;;;;20.95;9.60;;;18.00;99.90;;;;;;5128235;28;20173;-68
2021/08/11 00:47:40;;;;;;;18.50;8.13;;;18.00;99.90;;;;;;5129528;28;20639;-68
2021/08/11 00:50:07;;;;;;;11.43;8.50;;;18.00;99.90;;;;;;5130011;28;20166;-68
2021/08/11 00:52:33;;;;;;;12.25;7.95;;;18.00;99.90;;;;;;5127239;28;20219;-68
2021/08/11 00:55:00;;;;;;;9.18;7.72;;;17.90;99.90;;;;;;5129927;28;20159;-68
2021/08/11 00:57:26;;;;;;;17.77;7.80;;;17.80;99.90;;;;;;5129664;28;20159;-68
2021/08/11 00:59:55;;;;;;;13.18;8.38;;;17.80;99.90;;;;;;5129394;28;20179;-69
2021/08/11 01:02:22;;;;;;;25.60;7.35;;;17.70;99.90;;;;;;5127285;28;20158;-68
2021/08/11 01:04:51;;;;;;;11.88;7.78;;;17.60;99.90;;;;;;5129965;28;20167;-68
2021/08/11 01:07:19;;;;;;;7.40;6.90;;;17.80;99.90;;;;;;5128205;28;20213;-68
2021/08/11 01:09:45;;;;;;;7.70;7.10;;;17.70;99.90;;;;;;5129424;28;20163;-68
2021/08/11 01:12:11;;;;;;;9.55;8.10;;;17.70;99.90;;;;;;5127188;28;20159;-68
2021/08/11 01:14:37;;;;;;;9.60;8.63;;;17.70;99.90;;;;;;5129100;28;20501;-68
2021/08/11 01:17:04;;;;;;;12.30;9.13;;;17.70;99.90;;;;;;5129592;28;20159;-68
2021/08/11 01:19:31;;;;;;;20.17;10.38;;;17.60;99.90;;;;;;5129451;28;20217;-69
2021/08/11 01:22:25;;;;;;;12.52;10.35;;;17.70;99.90;;;;;;5126796;28;20181;-68
2021/08/11 01:25:20;;;;;;;11.93;10.60;;;17.60;99.90;;;;;;5129554;28;20668;-68
2021/08/11 01:28:07;;;;;;;15.32;11.20;;;17.50;99.90;;;;;;5129528;28;20194;-68
2021/08/11 01:30:52;;;;;;;14.35;11.65;;;17.60;99.90;;;;;;5127594;28;20171;-68
2021/08/11 01:33:45;;;;;;;12.80;10.48;;;17.50;99.90;;;;;;5128210;28;20192;-68
2021/08/11 01:36:49;;;;;;;9.48;8.55;;;17.50;99.90;;;;;;5129260;28;20167;-69
2021/08/11 01:39:27;;;;;;;11.38;8.60;;;17.60;99.90;;;;;;5124106;28;20189;-68
2021/08/11 01:42:12;;;;;;;19.38;10.57;;;17.60;99.90;;;;;;5126504;28;20193;-68
2021/08/11 01:44:51;;;;;;;14.10;10.10;;;17.50;99.90;;;;;;5128678;28;20185;-69
2021/08/11 01:47:21;;;;;;;15.05;10.65;;;17.50;99.90;;;;;;5129073;28;20193;-68
2021/08/11 01:49:49;;;;;;;12.20;10.75;;;17.60;99.90;;;;;;5129119;28;20162;-68
2021/08/11 01:52:16;;;;;;;19.27;12.95;;;17.50;99.90;;;;;;5126402;28;20155;-68
2021/08/11 01:54:43;;;;;;;18.38;11.75;;;17.50;99.90;;;;;;5128740;28;20745;-68
2021/08/11 01:57:11;;;;;;;14.75;11.57;;;17.50;99.90;;;;;;5128222;28;20166;-69
2021/08/11 01:59:38;;;;;;;14.00;12.13;;;17.30;99.90;;;;;;5128022;27;20163;-68
2021/08/11 02:02:04;;;;;;;15.45;11.45;;;17.30;99.90;;;;;;5126190;28;20155;-69
2021/08/11 02:04:30;;;;;;;13.50;11.15;;;17.20;99.90;;;;;;5128646;28;20162;-68
2021/08/11 02:06:57;;;;;;;14.65;12.02;;;17.10;99.90;;;;;;5128531;28;20282;-68
2021/08/11 02:09:23;;;;;;;21.55;11.82;;;17.10;99.90;;;;;;5128365;28;20190;-68
2021/08/11 02:11:49;;;;;;;14.27;11.80;;;17.10;99.90;;;;;;5125983;28;20171;-68
2021/08/11 02:14:15;;;;;;;18.35;11.13;;;17.10;99.90;;;;;;5128541;28;20162;-68
2021/08/11 02:16:42;;;;;;;15.30;11.57;;;17.10;99.90;;;;;;5127885;28;20170;-68
2021/08/11 02:19:09;;;;;;;16.63;11.70;;;17.10;99.90;;;;;;5128365;28;20627;-68
2021/08/11 02:21:36;;;;;;;17.25;10.73;;;17.00;99.90;;;;;;5125642;28;20185;-68
2021/08/11 02:24:03;;;;;;;18.20;10.80;;;17.00;99.90;;;;;;5128264;28;20165;-69
2021/08/11 02:26:49;;;;;;;18.40;10.88;;;17.00;99.90;;;;;;5128137;28;20159;-68
2021/08/11 02:29:42;;;;;;;14.73;10.00;;;17.00;99.90;;;;;;5128203;28;20175;-68
2021/08/11 02:32:17;;;;;;;17.85;9.75;;;17.00;99.90;;;;;;5125559;28;20171;-69
2021/08/11 02:34:48;;;;;;;13.00;10.13;;;16.90;99.90;;;;;;5128023;28;20158;-68
2021/08/11 02:37:17;;;;;;;13.23;10.18;;;16.90;99.90;;;;;;5128116;28;20166;-68
2021/08/11 02:40:05;;;;;;;13.60;10.15;;;16.90;99.90;;;;;;5127688;28;20190;-69
2021/08/11 02:42:44;;;;;;;14.50;10.55;;;16.90;99.90;;;;;;5125246;28;20159;-68
2021/08/11 02:45:13;;;;;;;18.80;11.00;;;16.90;99.90;;;;;;5127595;28;20177;-68
2021/08/11 02:47:41;;;;;;;16.92;11.32;;;16.80;99.90;;;;;;5127752;28;20175;-68
2021/08/11 02:50:08;;;;;;;14.60;10.80;;;16.90;99.90;;;;;;5127888;28;20166;-68
2021/08/11 02:52:35;;;;;;;15.38;10.57;;;16.80;99.90;;;;;;5123600;28;20169;-69
2021/08/11 02:55:02;;;;;;;20.20;11.45;;;16.70;99.90;;;;;;5127743;28;20226;-69
2021/08/11 02:57:30;;;;;;;12.63;9.90;;;16.70;99.90;;;;;;5126215;28;20176;-68
2021/08/11 02:59:56;;;;;;;17.38;11.25;;;16.60;99.90;;;;;;5125894;28;20175;-69
2021/08/11 03:02:23;;;;;;;16.05;11.10;;;16.70;99.90;;;;;;5124847;28;20159;-69
2021/08/11 03:04:49;;;;;;;22.55;11.18;;;16.70;99.90;;;;;;5127577;28;20174;-68
2021/08/11 03:07:15;;;;;;;12.40;10.88;;;16.70;99.90;;;;;;5126774;28;20476;-68
2021/08/11 03:09:41;;;;;;;21.00;10.35;;;16.50;99.90;;;;;;5126726;28;20150;-69
2021/08/11 03:12:10;;;;;;;14.90;10.35;;;16.40;99.90;;;;;;5124715;28;20170;-69
2021/08/11 03:14:39;;;;;;;14.70;9.85;;;16.40;99.90;;;;;;5126903;28;20650;-68
2021/08/11 03:17:09;;;;;;;13.05;9.57;;;16.30;99.90;;;;;;5127255;28;20158;-68
2021/08/11 03:19:35;;;;;;;12.90;9.82;;;16.40;99.90;;;;;;5127008;28;20162;-69
2021/08/11 03:22:01;;;;;;;18.02;10.48;;;16.40;99.90;;;;;;5124499;28;20170;-69
2021/08/11 03:24:27;;;;;;;15.75;12.45;;;16.40;99.90;;;;;;5127017;28;20189;-69
2021/08/11 03:26:53;;;;;;;15.73;11.18;;;16.30;99.90;;;;;;5127114;28;20159;-68
2021/08/11 03:29:18;;;;;;;19.38;12.75;;;16.30;99.90;;;;;;5126892;28;20159;-69
2021/08/11 03:31:44;;;;;;;17.85;11.30;;;16.30;99.90;;;;;;5123984;28;20174;-68
2021/08/11 03:34:09;;;;;;;13.13;11.25;;;16.30;99.90;;;;;;5126965;28;20168;-69
2021/08/11 03:36:35;;;;;;;15.40;10.55;;;16.30;99.90;;;;;;5126649;28;20178;-68
2021/08/11 03:39:01;;;;;;;16.05;11.93;;;16.20;99.90;;;;;;5126755;28;20174;-68
2021/08/11 03:41:26;;;;;;;17.15;11.73;;;16.20;99.90;;;;;;5122559;28;20170;-68
2021/08/11 03:43:52;;;;;;;16.60;11.88;;;16.20;99.90;;;;;;5126816;28;20154;-69
2021/08/11 03:46:17;;;;;;;23.50;12.05;;;16.20;99.90;;;;;;5125220;28;20263;-68
2021/08/11 03:48:43;;;;;;;16.27;9.93;;;16.20;99.90;;;;;;5126549;28;20607;-68
2021/08/11 03:51:09;;;;;;;16.55;12.27;;;16.10;99.90;;;;;;5124032;28;20561;-69
2021/08/11 03:53:35;;;;;;;15.85;10.55;;;16.20;99.90;;;;;;5126433;28;20529;-68
2021/08/11 03:56:00;;;;;;;14.18;10.35;;;16.10;99.90;;;;;;5125281;28;20155;-68
2021/08/11 03:58:26;;;;;;;15.55;10.60;;;15.90;99.90;;;;;;5126303;28;20198;-69
2021/08/11 04:00:51;;;;;;;16.20;11.70;;;15.80;99.90;;;;;;5123449;28;20209;-68
2021/08/11 04:03:17;;;;;;;16.45;11.60;;;15.90;99.90;;;;;;5126401;28;20158;-69
2021/08/11 04:05:43;;;;;;;20.48;11.35;;;16.00;99.90;;;;;;5126110;28;20163;-69
2021/08/11 04:08:08;;;;;;;14.38;10.95;;;15.80;99.90;;;;;;5124858;28;20229;-68
2021/08/11 04:10:34;;;;;;;18.38;11.80;;;15.80;99.90;;;;;;5124685;28;20170;-68
2021/08/11 04:13:00;;;;;;;14.98;10.75;;;15.80;99.90;;;;;;5125312;28;20797;-68
2021/08/11 04:15:25;;;;;;;17.05;11.15;;;15.80;99.90;;;;;;5125666;28;20165;-68
2021/08/11 04:17:51;;;;;;;17.25;11.23;;;15.80;99.90;;;;;;5126476;28;20170;-68
2021/08/11 04:20:19;;;;;;;14.07;11.27;;;15.80;99.90;;;;;;5125974;28;20162;-69
2021/08/11 04:22:45;;;;;;;23.48;11.65;;;15.70;99.90;;;;;;5123553;28;20155;-68
2021/08/11 04:25:10;;;;;;;15.65;11.48;;;15.70;99.90;;;;;;5126313;28;20162;-68
2021/08/11 04:27:36;;;;;;;20.67;10.65;;;15.70;99.90;;;;;;5125600;28;20194;-67
2021/08/11 04:30:02;;;;;;;14.48;10.95;;;15.70;99.90;;;;;;5125907;28;20197;-68
2021/08/11 04:32:28;;;;;;;17.38;12.20;;;15.70;99.90;;;;;;5123390;28;20155;-67
2021/08/11 04:34:54;;;;;;;18.05;11.40;;;15.60;99.90;;;;;;5126071;28;20169;-68
2021/08/11 04:37:19;;;;;;;16.20;11.15;;;15.70;99.90;;;;;;5126195;28;20226;-67
2021/08/11 04:39:45;;;;;;;19.63;12.35;;;15.60;99.90;;;;;;5125759;28;20170;-67
2021/08/11 04:42:11;;;;;;;22.42;12.30;;;15.50;99.90;;;;;;5123099;28;20155;-67
2021/08/11 04:44:36;;;;;;;17.77;11.30;;;15.40;99.90;;;;;;5125424;28;20163;-67
2021/08/11 04:47:02;;;;;;;14.30;11.25;;;15.40;99.90;;;;;;5125893;28;20163;-67
2021/08/11 04:49:28;;;;;;;17.35;11.85;;;15.50;99.90;;;;;;5125855;28;20166;-67
2021/08/11 04:51:53;;;;;;;20.08;12.00;;;15.40;99.90;;;;;;5123238;28;20180;-67
2021/08/11 04:54:19;;;;;;;14.15;10.73;;;15.50;99.90;;;;;;5125738;28;20166;-67
2021/08/11 04:56:45;;;;;;;19.27;12.30;;;15.40;99.90;;;;;;5125788;28;20246;-67
2021/08/11 04:59:11;;;;;;;28.42;12.77;;;15.50;99.90;;;;;;5125865;28;20158;-67
2021/08/11 05:01:36;;;;;;;21.60;13.27;;;15.40;99.90;;;;;;5121650;28;20407;-67
2021/08/11 05:04:02;;;;;;;16.88;12.90;;;15.60;99.90;;;;;;5125913;28;20173;-68
2021/08/11 05:06:28;;;;;;;20.27;12.25;;;15.70;99.90;;;;;;5124212;28;20225;-67
2021/08/11 05:08:56;;;;;;;23.70;12.35;;;15.50;99.90;;;;;;5124270;28;20198;-67
2021/08/11 05:11:22;;;;;;;18.52;11.65;;;15.40;99.90;;;;;;5123062;28;20231;-67
2021/08/11 05:13:48;;;;;;;17.38;12.23;;;15.30;99.90;;;;;;5124621;28;20173;-67
2021/08/11 05:16:13;;;;;;;19.95;12.40;;;15.40;99.90;;;;;;5124165;28;20261;-67
2021/08/11 05:18:39;;;;;;;18.70;11.50;;;15.40;99.90;;;;;;5125477;28;20166;-67
2021/08/11 05:21:04;;;;;;;21.45;11.80;;;15.40;99.90;;;;;;5121523;28;20171;-67
2021/08/11 05:23:30;;;;;;;16.73;12.52;;;15.40;99.90;;;;;;5124231;28;20162;-67
2021/08/11 05:25:56;;;;;;;19.33;12.07;;;15.50;99.90;;;;;;5125659;28;20155;-67
2021/08/11 05:28:21;;;;;;;23.33;12.80;;;15.50;99.90;;;;;;5125306;28;20270;-67
2021/08/11 05:30:47;;;;;;;19.65;11.50;;;15.60;99.90;;;;;;5122206;28;20171;-67
2021/08/11 05:33:12;;;;;;;21.70;12.93;;;15.60;99.90;;;;;;5127657;28;20522;-67
2021/08/11 05:35:38;;;;;;;19.98;13.10;;;15.80;99.90;;;;;;5128309;28;20151;-67
2021/08/11 05:38:05;;;;;;;18.08;12.63;;;15.70;99.90;;;;;;5128903;28;20170;-67
2021/08/11 05:40:31;;;;;;;22.45;13.02;;;15.80;99.90;;;;;;5127374;28;20245;-67
2021/08/11 05:42:57;;;;;;;19.90;12.60;;;15.90;99.90;;;;;;5127663;28;20154;-67
2021/08/11 05:45:22;;;;;;;23.48;13.55;;;15.80;99.90;;;;;;5128485;28;20167;-67
2021/08/11 05:47:48;;;;;;;19.35;13.38;;;15.70;99.90;;;;;;5128640;28;20227;-67
2021/08/11 05:50:14;;;;;;;28.92;13.25;;;15.70;99.90;;;;;;5128641;28;20182;-67
2021/08/11 05:52:40;;;;;;;18.35;12.60;;;15.80;99.90;;;;;;5124733;28;20169;-67
2021/08/11 05:55:06;;;;;;;20.08;13.90;;;15.80;99.90;;;;;;5128814;28;20182;-67
2021/08/11 05:57:35;;;;;;;20.75;13.68;;;15.90;99.90;;;;;;5128618;28;20196;-67
2021/08/11 06:00:03;;;;;;;23.50;13.63;;;15.90;99.90;;;;;;5128137;28;20202;-67
2021/08/11 06:02:28;;;;;;;23.10;13.35;;;15.90;99.90;;;;;;5125683;28;20246;-67
2021/08/11 06:04:54;;;;;;;25.23;12.18;;;15.90;99.90;;;;;;5128449;28;20664;-68
2021/08/11 06:07:20;;;;;;;22.35;12.38;;;16.00;99.90;;;;;;5128399;28;20217;-68
2021/08/11 06:09:46;;;;;;;18.50;12.30;;;16.20;99.90;;;;;;5128270;28;20703;-67
2021/08/11 06:12:12;;;;;;;15.68;12.63;;;16.20;99.90;;;;;;5125452;28;20280;-67
2021/08/11 06:14:37;;;;;;;17.35;12.43;;;16.20;99.90;;;;;;5127816;28;20159;-67
2021/08/11 06:17:03;;;;;;;25.45;12.60;;;16.20;99.90;;;;;;5128091;28;20167;-67
2021/08/11 06:19:29;;;;;;;25.67;12.48;;;16.20;99.90;;;;;;5127919;28;20183;-67
2021/08/11 06:21:54;;;;;;;15.50;12.32;;;16.10;99.90;;;;;;5125240;28;20194;-67
2021/08/11 06:24:20;;;;;;;24.27;12.43;;;16.20;99.90;;;;;;5128200;28;20162;-67
2021/08/11 06:26:46;;;;;;;22.20;11.68;;;16.20;99.90;;;;;;5128006;28;20187;-67
2021/08/11 06:29:11;;;;;;;23.15;12.52;;;16.20;99.90;;;;;;5126668;28;20194;-67
2021/08/11 06:31:37;;;;;;;23.60;12.38;;;16.20;99.90;;;;;;5124778;28;20171;-67
2021/08/11 06:34:03;;;;;;;17.10;11.43;;;16.40;99.90;;;;;;5128196;28;20165;-67
2021/08/11 06:36:28;;;;;;;15.95;11.48;;;16.40;99.90;;;;;;5127826;28;20163;-68
2021/08/11 06:38:54;;;;;;;20.95;12.25;;;16.60;99.90;;;;;;5126428;28;20190;-68
2021/08/11 06:41:20;;;;;;;21.45;12.52;;;16.60;99.90;;;;;;5125106;28;20235;-68
2021/08/11 06:43:46;;;;;;;20.00;12.00;;;16.70;99.90;;;;;;5126417;28;20170;-68
2021/08/11 06:46:13;;;;;;;19.23;11.80;;;16.80;99.90;;;;;;5127415;28;20319;-69
2021/08/11 06:48:39;;;;;;;22.85;12.07;;;16.80;99.90;;;;;;5127357;28;20214;-68
2021/08/11 06:51:06;;;;;;;18.02;11.63;;;17.00;99.90;;;;;;5124882;28;20546;-69
2021/08/11 06:53:32;;;;;;;21.73;12.23;;;17.00;99.90;;;;;;5127210;28;20570;-68
2021/08/11 06:55:58;;;;;;;20.27;11.85;;;17.00;99.90;;;;;;5127680;28;20182;-68
2021/08/11 06:58:24;;;;;;;20.38;12.23;;;17.00;99.90;;;;;;5126012;28;20170;-68
2021/08/11 07:00:50;;;;;;;24.60;12.95;;;17.00;99.90;;;;;;5124420;28;20207;-69
2021/08/11 07:03:17;;;;;;;32.72;12.30;;;17.00;99.90;;;;;;5127449;28;20165;-68
2021/08/11 07:05:43;;;;;;;21.75;12.27;;;17.10;99.90;;;;;;5127180;28;20608;-68
2021/08/11 07:08:09;;;;;;;21.90;12.05;;;17.20;99.90;;;;;;5127051;28;20213;-69
2021/08/11 07:10:34;;;;;;;23.27;12.57;;;17.40;99.90;;;;;;5124208;28;20167;-68
2021/08/11 07:13:00;;;;;;;21.02;12.60;;;17.30;99.90;;;;;;5126208;28;20147;-68
2021/08/11 07:15:26;;;;;;;20.83;13.73;;;17.20;99.90;;;;;;5126545;28;20188;-68
2021/08/11 07:17:56;;;;;;;21.77;13.30;;;17.30;99.90;;;;;;5127239;28;20162;-68
2021/08/11 07:20:23;;;;;;;19.42;12.73;;;17.10;99.90;;;;;;5126769;28;20155;-68
2021/08/11 07:22:49;;;;;;;20.60;13.27;;;17.10;99.90;;;;;;5124828;28;20162;-68
2021/08/11 07:25:15;;;;;;;27.17;14.45;;;17.20;99.90;;;;;;5126969;28;20192;-68
2021/08/11 07:27:41;;;;;;;23.73;13.63;;;17.40;99.90;;;;;;5126133;28;20190;-68
2021/08/11 07:30:08;;;;;;;14.73;12.75;;;17.50;99.90;;;;;;5126500;28;20170;-68
2021/08/11 07:32:33;;;;;;;19.90;12.95;;;17.70;99.90;;;;;;5124099;28;20534;-67
2021/08/11 07:34:59;;;;;;;17.75;12.95;;;17.90;99.90;;;;;;5126864;28;20158;-68
2021/08/11 07:37:25;;;;;;;15.98;12.20;;;17.80;99.90;;;;;;5126489;28;20219;-68
2021/08/11 07:39:53;;;;;;;21.08;12.90;;;17.80;99.90;;;;;;5126618;28;20169;-68
2021/08/11 07:42:20;;;;;;;17.00;12.05;;;17.90;99.90;;;;;;5124441;28;20174;-68
2021/08/11 07:44:46;;;;;;;20.92;12.20;;;17.90;99.90;;;;;;5126093;28;20654;-68
2021/08/11 07:47:11;;;;;;;18.23;11.70;;;17.70;99.90;;;;;;5125258;28;20221;-68
2021/08/11 07:49:37;;;;;;;16.35;10.95;;;17.90;99.90;;;;;;5126333;28;20159;-68
2021/08/11 07:52:03;;;;;;;14.50;9.73;;;18.00;99.90;;;;;;5123933;28;20162;-68
2021/08/11 07:54:29;;;;;;;11.88;8.75;;;18.00;99.90;;;;;;5125888;28;20232;-68
2021/08/11 07:56:55;;;;;;;15.25;9.45;;;17.90;99.90;;;;;;5126613;28;20158;-68
2021/08/11 07:59:20;;;;;;;14.15;9.90;;;18.00;99.90;;;;;;5126432;28;20163;-67
2021/08/11 08:01:46;;;;;;;14.70;8.52;;;18.00;99.90;;;;;;5123467;28;20178;-68
2021/08/11 08:04:11;;;;;;;13.30;8.90;;;18.30;99.90;;;;;;5124880;28;20170;-68
2021/08/11 08:06:37;;;;;;;17.45;9.75;;;18.50;99.90;;;;;;5126087;28;20226;-68
2021/08/11 08:09:03;;;;;;;15.38;8.55;;;18.70;99.90;;;;;;5126203;28;20190;-68
2021/08/11 08:11:29;;;;;;;10.43;8.45;;;18.80;99.90;;;;;;5123366;28;20170;-68
2021/08/11 08:13:54;;;;;;;12.27;7.28;;;18.70;99.90;;;;;;5126273;28;20163;-68
2021/08/11 08:16:20;;;;;;;8.98;7.35;;;18.80;99.90;;;;;;5126173;28;20167;-68
2021/08/11 08:18:45;;;;;;;11.57;5.95;;;18.80;99.90;;;;;;5126024;28;20196;-68
2021/08/11 08:21:11;;;;;;;8.57;4.82;;;19.10;99.90;;;;;;5122222;28;20208;-68
2021/08/11 08:23:38;;;;;;;9.60;5.47;;;19.30;99.90;;;;;;5125758;28;20161;-69
2021/08/11 08:26:04;;;;;;;6.40;4.60;;;19.20;99.90;;;;;;5125921;28;20163;-68
2021/08/11 08:28:30;;;;;;;11.65;4.70;;;19.40;99.90;;;;;;5125879;28;20235;-68
2021/08/11 08:30:55;;;;;;;10.30;5.47;;;19.60;99.90;;;;;;5122904;28;20170;-68
2021/08/11 08:33:21;;;;;;;7.18;4.00;;;19.50;99.90;;;;;;5125898;28;20163;-68
2021/08/11 08:35:46;;;;;;;10.23;4.10;;;19.60;99.90;;;;;;5126051;28;20154;-68
2021/08/11 08:38:13;;;;;;;8.52;3.83;;;19.80;99.90;;;;;;5126039;28;20173;-68
2021/08/11 08:40:40;;;;;;;7.70;3.22;;;20.10;99.90;;;;;;5123772;28;20249;-68
2021/08/11 08:43:07;;;;;;;9.05;3.45;;;19.70;99.90;;;;;;5124060;28;20167;-68
2021/08/11 08:45:34;;;;;;;7.18;3.00;;;19.60;99.90;;;;;;5125398;28;20174;-68
2021/08/11 08:48:04;;;;;;;5.40;3.00;;;19.70;99.90;;;;;;5126014;28;20194;-68
2021/08/11 08:50:31;;;;;;;8.75;3.40;;;19.70;99.90;;;;;;5124836;28;20444;-68
2021/08/11 08:52:58;;;;;;;11.27;3.33;;;19.90;99.90;;;;;;5124698;28;20158;-68
2021/08/11 08:55:24;;;;;;;6.93;3.53;;;20.00;99.90;;;;;;5125797;28;20232;-68
2021/08/11 08:57:50;;;;;;;11.23;3.92;;;20.20;99.90;;;;;;5126101;28;20187;-68
2021/08/11 09:00:16;;;;;;;5.43;4.03;;;20.50;99.90;;;;;;5125187;28;20182;-69
2021/08/11 09:02:42;;;;;;;10.27;4.00;;;20.40;99.90;;;;;;5123637;28;20175;-69
2021/08/11 09:05:12;;;;;;;7.60;4.10;;;20.40;99.90;;;;;;5125472;28;20542;-69
2021/08/11 09:07:43;;;;;;;10.27;4.03;;;20.60;99.90;;;;;;5128368;28;20273;-69
2021/08/11 09:10:21;;;;;;;6.13;3.95;;;21.00;99.90;;;;;;5129128;28;20181;-68
2021/08/11 09:12:48;;;;;;;6.70;3.38;;;21.10;99.90;;;;;;5126954;28;20155;-68
2021/08/11 09:15:36;;;;;;;12.25;3.88;;;21.30;99.90;;;;;;5129337;28;20166;-68
2021/08/11 09:18:11;;;;;;;3.80;3.03;;;21.40;99.90;;;;;;5128689;28;20659;-68
2021/08/11 09:20:37;;;;;;;5.50;3.65;;;21.20;99.90;;;;;;5124869;28;20162;-68
2021/08/11 09:23:03;;;;;;;9.50;4.05;;;21.10;99.90;;;;;;5128729;28;20158;-68
2021/08/11 09:25:29;;;;;;;6.22;3.83;;;21.30;99.90;;;;;;5129167;28;20163;-68
2021/08/11 09:27:54;;;;;;;3.47;3.05;;;20.90;99.90;;;;;;5129367;28;20190;-68
2021/08/11 09:30:25;;;;;;;6.63;3.40;;;20.70;99.90;;;;;;5127851;28;20174;-68
2021/08/11 09:33:05;;;;;;;5.03;3.30;;;20.90;99.90;;;;;;5127323;28;20166;-68
2021/08/11 09:35:31;;;;;;;6.13;2.80;;;21.20;99.90;;;;;;5127678;28;20162;-68
2021/08/11 09:38:03;;;;;;;5.68;3.50;;;21.40;99.90;;;;;;5127955;28;20166;-68
2021/08/11 09:40:31;;;;;;;6.50;3.35;;;21.20;99.90;;;;;;5128074;28;20222;-68
2021/08/11 09:42:58;;;;;;;10.85;3.58;;;21.30;99.90;;;;;;5127675;28;20208;-68
2021/08/11 09:45:25;;;;;;;5.28;4.03;;;21.10;99.90;;;;;;5127240;28;20200;-68
2021/08/11 09:47:57;;;;;;;5.50;3.45;;;20.90;99.90;;;;;;5129126;28;20183;-68
2021/08/11 09:51:02;;;;;;;7.20;3.75;;;20.60;99.90;;;;;;5128600;28;20159;-68
2021/08/11 09:53:30;;;;;;;6.85;3.45;;;20.80;99.90;;;;;;5119740;28;20178;-68
2021/08/11 09:56:09;;;;;;;4.65;3.17;;;21.00;99.90;;;;;;5128854;28;20218;-68
2021/08/11 09:58:46;;;;;;;7.90;3.13;;;20.80;99.90;;;;;;5128694;28;20173;-67
2021/08/11 10:01:13;;;;;;;10.15;2.88;;;20.80;99.90;;;;;;5126009;28;20245;-68
2021/08/11 10:04:02;;;;;;;4.30;2.90;;;20.60;99.90;;;;;;5128269;28;20170;-68
2021/08/11 10:06:39;;;;;;;7.38;3.33;;;20.70;99.90;;;;;;5127764;28;20210;-68
2021/08/11 10:09:24;;;;;;;5.60;3.20;;;20.80;99.90;;;;;;5128354;28;20194;-68
2021/08/11 10:11:57;;;;;;;6.57;3.47;;;20.60;99.90;;;;;;5126119;28;20169;-68
2021/08/11 10:14:35;;;;;;;9.70;3.10;;;20.70;99.90;;;;;;5128218;28;20617;-68
2021/08/11 10:17:01;;;;;;;6.68;3.78;;;20.80;99.90;;;;;;5127038;28;20166;-68
2021/08/11 10:19:32;;;;;;;4.43;3.80;;;20.90;99.90;;;;;;5127908;28;20157;-68
2021/08/11 10:22:02;;;;;;;4.70;3.72;;;20.90;99.90;;;;;;5125265;28;20163;-68
2021/08/11 10:24:31;;;;;;;7.43;3.67;;;21.00;99.90;;;;;;5128171;28;20165;-68
2021/08/11 10:26:58;;;;;;;11.50;3.92;;;21.00;99.90;;;;;;5128303;28;20186;-68
2021/08/11 10:29:24;;;;;;;5.05;4.05;;;21.40;99.90;;;;;;5127704;28;20214;-68
2021/08/11 10:31:50;;;;;;;6.82;3.80;;;21.50;99.90;;;;;;5125326;28;20174;-68
2021/08/11 10:34:17;;;;;;;5.68;4.15;;;21.30;99.90;;;;;;5128169;28;20158;-68
2021/08/11 10:36:45;;;;;;;5.32;4.00;;;21.50;99.90;;;;;;5127849;28;20158;-68
2021/08/11 10:39:11;;;;;;;11.65;4.15;;;21.40;99.90;;;;;;5127654;28;20170;-68
2021/08/11 10:41:38;;;;;;;4.30;3.85;;;21.50;99.90;;;;;;5123440;28;20178;-69
2021/08/11 10:44:05;;;;;;;8.60;4.63;;;21.80;99.90;;;;;;5128106;28;20207;-68
2021/08/11 10:46:44;;;;;;;10.05;4.30;;;22.10;99.90;;;;;;5127353;28;20719;-68
2021/08/11 10:49:16;;;;;;;6.88;4.05;;;22.10;99.90;;;;;;5127579;28;20196;-68
2021/08/11 10:51:50;;;;;;;5.60;4.28;;;21.90;99.90;;;;;;5125043;28;20301;-68
2021/08/11 10:54:16;;;;;;;8.32;3.97;;;21.90;99.90;;;;;;5126249;28;20174;-68
2021/08/11 10:56:43;;;;;;;15.60;4.82;;;22.00;99.90;;;;;;5126147;28;20193;-68
2021/08/11 10:59:32;;;;;;;15.77;5.10;;;22.00;99.90;;;;;;5127457;28;20163;-68
2021/08/11 11:01:59;;;;;;;6.32;3.70;;;21.90;99.90;;;;;;5123305;28;20671;-68
2021/08/11 11:04:50;;;;;;;7.45;4.05;;;21.80;99.90;;;;;;5127137;28;20211;-68
2021/08/11 11:07:18;;;;;;;5.55;3.88;;;21.80;99.90;;;;;;5126954;28;20241;-69
2021/08/11 11:09:45;;;;;;;6.72;4.18;;;22.00;99.90;;;;;;5126837;28;20155;-69
2021/08/11 11:12:17;;;;;;;8.73;4.10;;;22.00;99.90;;;;;;5124710;28;20216;-68
2021/08/11 11:14:52;;;;;;;5.80;3.45;;;22.20;99.90;;;;;;5127186;28;20155;-69
2021/08/11 11:17:26;;;;;;;8.88;3.92;;;22.20;99.90;;;;;;5125866;28;20657;-68
2021/08/11 11:20:09;;;;;;;13.60;4.13;;;22.40;99.90;;;;;;5125939;28;20227;-68
2021/08/11 11:23:03;;;;;;;3.70;3.28;;;22.40;99.90;;;;;;5123062;28;20167;-69
2021/08/11 11:26:05;;;;;;;10.10;3.60;;;22.80;99.90;;;;;;5124160;28;20208;-69
2021/08/11 11:28:54;;;;;;;5.95;3.55;;;22.60;99.90;;;;;;5125896;28;20192;-68
2021/08/11 11:31:42;;;;;;;5.82;3.70;;;22.40;99.90;;;;;;5123926;28;20174;-69
2021/08/11 11:34:26;;;;;;;4.28;3.03;;;22.10;99.90;;;;;;5126910;28;20155;-68
2021/08/11 11:36:55;;;;;;;5.85;3.70;;;21.80;99.90;;;;;;5126661;28;20248;-68
2021/08/11 11:39:32;;;;;;;8.88;4.13;;;21.60;99.90;;;;;;5126632;28;20222;-68
2021/08/11 11:42:25;;;;;;;4.13;2.97;;;21.90;99.90;;;;;;5124072;28;20662;-69
2021/08/11 11:44:59;;;;;;;10.02;3.67;;;22.00;99.90;;;;;;5124436;28;20178;-69
2021/08/11 11:50:21;;;;;;;6.07;3.40;;;22.70;99.90;;;;;;5126033;28;20257;-69
2021/08/11 11:52:59;;;;;;;4.18;3.28;;;22.80;99.90;;;;;;5124211;28;20232;-69
2021/08/11 11:55:33;;;;;;;4.68;3.25;;;23.00;99.90;;;;;;5125113;28;20163;-68
2021/08/11 11:58:01;;;;;;;4.97;3.92;;;23.20;99.90;;;;;;5126651;28;20166;-68
2021/08/11 12:00:28;;;;;;;23.27;3.33;;;23.20;99.90;;;;;;5123916;28;20519;-68
2021/08/11 12:02:55;;;;;;;4.63;3.15;;;23.40;99.90;;;;;;5124647;28;20240;-68
2021/08/11 12:05:21;;;;;;;6.07;3.15;;;23.80;99.90;;;;;;5125026;28;20206;-68
2021/08/11 12:07:47;;;;;;;7.13;3.67;;;23.90;99.90;;;;;;5126298;28;20241;-68
2021/08/11 12:10:25;;;;;;;8.52;3.88;;;23.70;99.90;;;;;;5124983;28;20170;-68
2021/08/11 12:13:00;;;;;;;5.97;3.70;;;23.80;99.90;;;;;;5122928;28;20181;-68
2021/08/11 12:15:27;;;;;;;6.72;3.30;;;24.20;99.90;;;;;;5125949;28;20162;-68
2021/08/11 12:17:56;;;;;;;5.50;2.80;;;24.40;99.90;;;;;;5125980;28;20216;-68
2021/08/11 12:20:25;;;;;;;7.07;2.95;;;24.70;99.90;;;;;;5125806;28;20163;-68
2021/08/11 12:22:50;;;;;;;7.00;3.15;;;24.70;99.90;;;;;;5123573;28;20446;-68
2021/08/11 12:25:30;;;;;;;4.25;3.67;;;24.60;99.90;;;;;;5124884;28;20543;-68
2021/08/11 12:28:22;;;;;;;5.82;3.20;;;24.50;99.90;;;;;;5125886;28;20211;-68
2021/08/11 12:30:57;;;;;;;4.65;3.10;;;24.70;99.90;;;;;;5123025;28;20226;-67
2021/08/11 12:33:25;;;;;;;5.80;3.42;;;24.70;99.90;;;;;;5125988;28;20174;-68
2021/08/11 12:35:52;;;;;;;6.22;3.05;;;25.00;99.90;;;;;;5126021;28;20170;-68
2021/08/11 12:38:29;;;;;;;6.80;3.55;;;25.10;99.90;;;;;;5126120;28;20159;-67
2021/08/11 12:40:55;;;;;;;7.82;3.28;;;25.20;99.90;;;;;;5125678;28;20162;-68
2021/08/11 12:43:21;;;;;;;2.97;2.65;;;25.30;99.90;;;;;;5130218;28;20159;-67
2021/08/11 12:45:49;;;;;;;4.97;2.97;;;25.40;99.90;;;;;;5129679;28;20573;-67
2021/08/11 12:48:28;;;;;;;5.47;3.20;;;25.50;99.90;;;;;;5130151;28;20194;-67